sensor_id;sensor_type;location;lat;lon;timestamp;temperature;humidity
35531;DHT22;21637;53.352;-6.356;2023-06-24T00:01:28;19.40;99.90
35531;DHT22;21637;53.352;-6.356;2023-06-24T00:03:54;19.40;99.90
35531;DHT22;21637;53.352;-6.356;2023-06-24T00:06:20;19.40;99.90
35531;DHT22;21637;53.352;-6.356;2023-06-24T00:08:48;19.40;99.90
35531;DHT22;21637;53.352;-6.356;2023-06-24T00:11:15;19.40;99.90
35531;DHT22;21637;53.352;-6.356;2023-06-24T00:13:42;19.40;99.90
35531;DHT22;21637;53.352;-6.356;2023-06-24T00:16:08;19.40;99.90
35531;DHT22;21637;53.352;-6.356;2023-06-24T00:18:34;19.30;99.90
35531;DHT22;21637;53.352;-6.356;2023-06-24T00:21:01;19.30;99.90
35531;DHT22;21637;53.352;-6.356;2023-06-24T00:23:28;19.30;99.90
35531;DHT22;21637;53.352;-6.356;2023-06-24T00:25:54;19.30;99.90
35531;DHT22;21637;53.352;-6.356;2023-06-24T00:28:21;19.30;99.90
35531;DHT22;21637;53.352;-6.356;2023-06-24T00:30:47;19.30;99.90
35531;DHT22;21637;53.352;-6.356;2023-06-24T00:33:13;19.20;99.90
35531;DHT22;21637;53.352;-6.356;2023-06-24T00:35:40;19.30;99.90
35531;DHT22;21637;53.352;-6.356;2023-06-24T00:38:06;19.20;99.90
35531;DHT22;21637;53.352;-6.356;2023-06-24T00:40:32;19.20;99.90
35531;DHT22;21637;53.352;-6.356;2023-06-24T00:42:58;19.20;99.90
35531;DHT22;21637;53.352;-6.356;2023-06-24T00:45:24;19.20;99.90
35531;DHT22;21637;53.352;-6.356;2023-06-24T00:47:51;19.20;99.90
35531;DHT22;21637;53.352;-6.356;2023-06-24T00:50:21;19.20;99.90
35531;DHT22;21637;53.352;-6.356;2023-06-24T00:52:47;19.20;99.90
35531;DHT22;21637;53.352;-6.356;2023-06-24T00:55:15;19.20;99.90
35531;DHT22;21637;53.352;-6.356;2023-06-24T00:57:45;19.10;99.90
35531;DHT22;21637;53.352;-6.356;2023-06-24T01:00:12;19.20;99.90
35531;DHT22;21637;53.352;-6.356;2023-06-24T01:02:43;19.20;99.90
35531;DHT22;21637;53.352;-6.356;2023-06-24T01:05:12;19.10;99.90
35531;DHT22;21637;53.352;-6.356;2023-06-24T01:07:38;19.10;99.90
35531;DHT22;21637;53.352;-6.356;2023-06-24T01:10:05;19.10;99.90
35531;DHT22;21637;53.352;-6.356;2023-06-24T01:12:34;19.10;99.90
35531;DHT22;21637;53.352;-6.356;2023-06-24T01:15:01;19.10;99.90
35531;DHT22;21637;53.352;-6.356;2023-06-24T01:17:35;19.10;99.90
35531;DHT22;21637;53.352;-6.356;2023-06-24T01:23:06;19.10;99.90
35531;DHT22;21637;53.352;-6.356;2023-06-24T01:33:49;19.10;99.90
35531;DHT22;21637;53.352;-6.356;2023-06-24T01:36:18;19.10;99.90
35531;DHT22;21637;53.352;-6.356;2023-06-24T01:38:51;19.10;99.90
35531;DHT22;21637;53.352;-6.356;2023-06-24T01:41:18;19.10;99.90
35531;DHT22;21637;53.352;-6.356;2023-06-24T01:43:46;19.10;99.90
35531;DHT22;21637;53.352;-6.356;2023-06-24T01:46:14;19.00;99.90
35531;DHT22;21637;53.352;-6.356;2023-06-24T01:48:43;19.00;99.90
35531;DHT22;21637;53.352;-6.356;2023-06-24T01:51:12;19.00;99.90
35531;DHT22;21637;53.352;-6.356;2023-06-24T01:53:42;19.10;99.90
35531;DHT22;21637;53.352;-6.356;2023-06-24T01:56:11;19.10;99.90
35531;DHT22;21637;53.352;-6.356;2023-06-24T01:58:39;19.10;99.90
35531;DHT22;21637;53.352;-6.356;2023-06-24T02:01:06;19.10;99.90
35531;DHT22;21637;53.352;-6.356;2023-06-24T02:03:33;19.10;99.90
35531;DHT22;21637;53.352;-6.356;2023-06-24T02:06:01;19.10;99.90
35531;DHT22;21637;53.352;-6.356;2023-06-24T02:08:35;19.10;99.90
35531;DHT22;21637;53.352;-6.356;2023-06-24T02:11:03;19.10;99.90
35531;DHT22;21637;53.352;-6.356;2023-06-24T02:13:31;19.00;99.90
35531;DHT22;21637;53.352;-6.356;2023-06-24T02:15:59;19.00;99.90
35531;DHT22;21637;53.352;-6.356;2023-06-24T02:18:27;19.00;99.90
35531;DHT22;21637;53.352;-6.356;2023-06-24T02:20:54;18.90;99.90
35531;DHT22;21637;53.352;-6.356;2023-06-24T02:23:21;18.90;99.90
35531;DHT22;21637;53.352;-6.356;2023-06-24T02:25:48;18.90;99.90
35531;DHT22;21637;53.352;-6.356;2023-06-24T02:28:14;18.90;99.90
35531;DHT22;21637;53.352;-6.356;2023-06-24T02:30:42;18.90;99.90
35531;DHT22;21637;53.352;-6.356;2023-06-24T02:33:09;18.90;99.90
35531;DHT22;21637;53.352;-6.356;2023-06-24T02:35:37;18.90;99.90
35531;DHT22;21637;53.352;-6.356;2023-06-24T02:38:03;18.90;99.90
35531;DHT22;21637;53.352;-6.356;2023-06-24T02:40:29;18.90;99.90
35531;DHT22;21637;53.352;-6.356;2023-06-24T02:42:57;18.90;99.90
35531;DHT22;21637;53.352;-6.356;2023-06-24T02:45:22;19.00;99.90
35531;DHT22;21637;53.352;-6.356;2023-06-24T02:47:48;19.00;99.90
35531;DHT22;21637;53.352;-6.356;2023-06-24T02:50:15;19.10;99.90
35531;DHT22;21637;53.352;-6.356;2023-06-24T02:52:42;19.10;99.90
35531;DHT22;21637;53.352;-6.356;2023-06-24T02:55:08;19.20;99.90
35531;DHT22;21637;53.352;-6.356;2023-06-24T02:57:35;19.20;99.90
35531;DHT22;21637;53.352;-6.356;2023-06-24T03:00:03;19.20;99.90
35531;DHT22;21637;53.352;-6.356;2023-06-24T03:02:31;19.30;99.90
35531;DHT22;21637;53.352;-6.356;2023-06-24T03:04:58;19.30;99.90
35531;DHT22;21637;53.352;-6.356;2023-06-24T03:07:27;19.30;99.90
35531;DHT22;21637;53.352;-6.356;2023-06-24T03:09:53;19.30;99.90
35531;DHT22;21637;53.352;-6.356;2023-06-24T03:12:19;19.30;99.90
35531;DHT22;21637;53.352;-6.356;2023-06-24T03:14:45;19.30;99.90
35531;DHT22;21637;53.352;-6.356;2023-06-24T03:17:11;19.40;99.90
35531;DHT22;21637;53.352;-6.356;2023-06-24T03:19:37;19.40;99.90
35531;DHT22;21637;53.352;-6.356;2023-06-24T03:22:03;19.40;99.90
35531;DHT22;21637;53.352;-6.356;2023-06-24T03:24:29;19.40;99.90
35531;DHT22;21637;53.352;-6.356;2023-06-24T03:26:55;19.40;99.90
35531;DHT22;21637;53.352;-6.356;2023-06-24T03:29:23;19.50;99.90
35531;DHT22;21637;53.352;-6.356;2023-06-24T03:31:49;19.50;99.90
35531;DHT22;21637;53.352;-6.356;2023-06-24T03:34:15;19.50;99.90
35531;DHT22;21637;53.352;-6.356;2023-06-24T03:36:42;19.50;99.90
35531;DHT22;21637;53.352;-6.356;2023-06-24T03:39:08;19.50;99.90
35531;DHT22;21637;53.352;-6.356;2023-06-24T03:41:34;19.50;99.90
35531;DHT22;21637;53.352;-6.356;2023-06-24T03:44:00;19.50;99.90
35531;DHT22;21637;53.352;-6.356;2023-06-24T03:46:26;19.50;99.90
35531;DHT22;21637;53.352;-6.356;2023-06-24T03:48:54;19.50;99.90
35531;DHT22;21637;53.352;-6.356;2023-06-24T03:51:19;19.50;99.90
35531;DHT22;21637;53.352;-6.356;2023-06-24T03:53:45;19.40;99.90
35531;DHT22;21637;53.352;-6.356;2023-06-24T03:56:11;19.50;99.90
35531;DHT22;21637;53.352;-6.356;2023-06-24T03:58:36;19.50;99.90
35531;DHT22;21637;53.352;-6.356;2023-06-24T04:01:02;19.50;99.90
35531;DHT22;21637;53.352;-6.356;2023-06-24T04:03:28;19.50;99.90
35531;DHT22;21637;53.352;-6.356;2023-06-24T04:05:55;19.50;99.90
35531;DHT22;21637;53.352;-6.356;2023-06-24T04:08:22;19.50;99.90
35531;DHT22;21637;53.352;-6.356;2023-06-24T04:10:47;19.40;99.90
35531;DHT22;21637;53.352;-6.356;2023-06-24T04:13:13;19.50;99.90
35531;DHT22;21637;53.352;-6.356;2023-06-24T04:15:39;19.50;99.90
35531;DHT22;21637;53.352;-6.356;2023-06-24T04:18:05;19.50;99.90
35531;DHT22;21637;53.352;-6.356;2023-06-24T04:20:30;19.50;99.90
35531;DHT22;21637;53.352;-6.356;2023-06-24T04:22:58;19.50;99.90
35531;DHT22;21637;53.352;-6.356;2023-06-24T04:25:24;19.60;99.90
35531;DHT22;21637;53.352;-6.356;2023-06-24T04:27:50;19.60;99.90
35531;DHT22;21637;53.352;-6.356;2023-06-24T04:30:15;19.70;99.90
35531;DHT22;21637;53.352;-6.356;2023-06-24T04:32:41;19.70;99.90
35531;DHT22;21637;53.352;-6.356;2023-06-24T04:35:07;19.60;99.90
35531;DHT22;21637;53.352;-6.356;2023-06-24T04:37:33;19.70;99.90
35531;DHT22;21637;53.352;-6.356;2023-06-24T04:39:58;19.70;99.90
35531;DHT22;21637;53.352;-6.356;2023-06-24T04:42:24;19.70;99.90
35531;DHT22;21637;53.352;-6.356;2023-06-24T04:44:50;19.70;99.90
35531;DHT22;21637;53.352;-6.356;2023-06-24T04:47:19;19.70;99.90
35531;DHT22;21637;53.352;-6.356;2023-06-24T04:49:44;19.70;99.90
35531;DHT22;21637;53.352;-6.356;2023-06-24T04:52:11;19.70;99.90
35531;DHT22;21637;53.352;-6.356;2023-06-24T04:54:37;19.70;99.90
35531;DHT22;21637;53.352;-6.356;2023-06-24T04:57:08;19.70;99.90
35531;DHT22;21637;53.352;-6.356;2023-06-24T04:59:34;19.80;99.90
35531;DHT22;21637;53.352;-6.356;2023-06-24T05:01:59;19.80;99.90
35531;DHT22;21637;53.352;-6.356;2023-06-24T05:04:25;19.80;99.90
35531;DHT22;21637;53.352;-6.356;2023-06-24T05:06:51;19.80;99.90
35531;DHT22;21637;53.352;-6.356;2023-06-24T05:09:17;19.80;99.90
35531;DHT22;21637;53.352;-6.356;2023-06-24T05:11:43;19.90;99.90
35531;DHT22;21637;53.352;-6.356;2023-06-24T05:14:09;19.90;99.90
35531;DHT22;21637;53.352;-6.356;2023-06-24T05:16:35;19.90;99.90
35531;DHT22;21637;53.352;-6.356;2023-06-24T05:19:00;19.80;99.90
35531;DHT22;21637;53.352;-6.356;2023-06-24T05:21:26;19.80;99.90
35531;DHT22;21637;53.352;-6.356;2023-06-24T05:23:52;19.80;99.90
35531;DHT22;21637;53.352;-6.356;2023-06-24T05:26:17;19.70;99.90
35531;DHT22;21637;53.352;-6.356;2023-06-24T05:28:43;19.80;99.90
35531;DHT22;21637;53.352;-6.356;2023-06-24T05:31:09;19.80;99.90
35531;DHT22;21637;53.352;-6.356;2023-06-24T05:33:34;19.80;99.90
35531;DHT22;21637;53.352;-6.356;2023-06-24T05:36:00;19.90;99.90
35531;DHT22;21637;53.352;-6.356;2023-06-24T05:38:26;19.80;99.90
35531;DHT22;21637;53.352;-6.356;2023-06-24T05:40:51;19.90;99.90
35531;DHT22;21637;53.352;-6.356;2023-06-24T05:43:17;19.90;99.90
35531;DHT22;21637;53.352;-6.356;2023-06-24T05:45:43;19.90;99.90
35531;DHT22;21637;53.352;-6.356;2023-06-24T05:48:09;19.90;99.90
35531;DHT22;21637;53.352;-6.356;2023-06-24T05:50:35;20.00;99.90
35531;DHT22;21637;53.352;-6.356;2023-06-24T05:53:01;20.10;99.90
35531;DHT22;21637;53.352;-6.356;2023-06-24T05:55:26;20.20;99.90
35531;DHT22;21637;53.352;-6.356;2023-06-24T05:57:52;20.20;99.90
35531;DHT22;21637;53.352;-6.356;2023-06-24T06:00:18;20.30;99.90
35531;DHT22;21637;53.352;-6.356;2023-06-24T06:02:44;20.30;99.90
35531;DHT22;21637;53.352;-6.356;2023-06-24T06:05:10;20.30;99.90
35531;DHT22;21637;53.352;-6.356;2023-06-24T06:07:35;20.40;99.90
35531;DHT22;21637;53.352;-6.356;2023-06-24T06:10:05;20.50;99.90
35531;DHT22;21637;53.352;-6.356;2023-06-24T06:12:31;20.60;99.90
35531;DHT22;21637;53.352;-6.356;2023-06-24T06:14:57;20.60;99.90
35531;DHT22;21637;53.352;-6.356;2023-06-24T06:17:23;20.70;99.90
35531;DHT22;21637;53.352;-6.356;2023-06-24T06:19:49;20.80;99.90
35531;DHT22;21637;53.352;-6.356;2023-06-24T06:22:14;20.90;99.90
35531;DHT22;21637;53.352;-6.356;2023-06-24T06:24:41;21.10;99.90
35531;DHT22;21637;53.352;-6.356;2023-06-24T06:27:10;21.20;99.90
35531;DHT22;21637;53.352;-6.356;2023-06-24T06:29:36;21.30;99.90
35531;DHT22;21637;53.352;-6.356;2023-06-24T06:32:02;21.30;99.90
35531;DHT22;21637;53.352;-6.356;2023-06-24T06:34:28;21.30;99.90
35531;DHT22;21637;53.352;-6.356;2023-06-24T06:36:54;21.30;99.90
35531;DHT22;21637;53.352;-6.356;2023-06-24T06:39:19;21.30;94.00
35531;DHT22;21637;53.352;-6.356;2023-06-24T06:41:45;21.20;88.70
35531;DHT22;21637;53.352;-6.356;2023-06-24T06:44:11;21.20;90.90
35531;DHT22;21637;53.352;-6.356;2023-06-24T06:46:36;21.30;94.10
35531;DHT22;21637;53.352;-6.356;2023-06-24T06:49:02;21.40;90.80
35531;DHT22;21637;53.352;-6.356;2023-06-24T06:51:28;21.50;98.00
35531;DHT22;21637;53.352;-6.356;2023-06-24T06:53:53;21.60;78.90
35531;DHT22;21637;53.352;-6.356;2023-06-24T06:56:23;21.80;94.40
35531;DHT22;21637;53.352;-6.356;2023-06-24T06:58:50;21.80;67.10
35531;DHT22;21637;53.352;-6.356;2023-06-24T07:01:17;21.90;70.00
35531;DHT22;21637;53.352;-6.356;2023-06-24T07:03:42;22.00;61.00
35531;DHT22;21637;53.352;-6.356;2023-06-24T07:06:08;22.10;68.90
35531;DHT22;21637;53.352;-6.356;2023-06-24T07:08:34;22.10;55.60
35531;DHT22;21637;53.352;-6.356;2023-06-24T07:11:01;22.10;28.30
35531;DHT22;21637;53.352;-6.356;2023-06-24T07:13:27;22.10;37.20
35531;DHT22;21637;53.352;-6.356;2023-06-24T07:15:53;22.30;50.90
35531;DHT22;21637;53.352;-6.356;2023-06-24T07:18:18;22.50;38.20
35531;DHT22;21637;53.352;-6.356;2023-06-24T07:20:44;22.50;30.00
35531;DHT22;21637;53.352;-6.356;2023-06-24T07:23:09;22.50;24.50
35531;DHT22;21637;53.352;-6.356;2023-06-24T07:25:36;22.60;19.10
35531;DHT22;21637;53.352;-6.356;2023-06-24T07:28:02;22.60;16.10
35531;DHT22;21637;53.352;-6.356;2023-06-24T07:30:27;22.70;1.00
35531;DHT22;21637;53.352;-6.356;2023-06-24T07:32:53;22.80;6.60
35531;DHT22;21637;53.352;-6.356;2023-06-24T07:35:19;22.90;11.30
35531;DHT22;21637;53.352;-6.356;2023-06-24T07:37:45;23.00;1.00
35531;DHT22;21637;53.352;-6.356;2023-06-24T07:40:11;23.10;1.00
35531;DHT22;21637;53.352;-6.356;2023-06-24T07:42:36;23.20;1.00
35531;DHT22;21637;53.352;-6.356;2023-06-24T07:45:03;23.30;1.00
35531;DHT22;21637;53.352;-6.356;2023-06-24T07:47:28;23.40;1.00
35531;DHT22;21637;53.352;-6.356;2023-06-24T07:49:54;23.50;1.00
35531;DHT22;21637;53.352;-6.356;2023-06-24T07:52:20;23.50;1.00
35531;DHT22;21637;53.352;-6.356;2023-06-24T07:54:46;23.50;1.00
35531;DHT22;21637;53.352;-6.356;2023-06-24T07:57:11;23.60;1.00
35531;DHT22;21637;53.352;-6.356;2023-06-24T07:59:37;23.80;1.00
35531;DHT22;21637;53.352;-6.356;2023-06-24T08:02:03;23.80;1.00
35531;DHT22;21637;53.352;-6.356;2023-06-24T08:04:28;24.00;1.00
35531;DHT22;21637;53.352;-6.356;2023-06-24T08:06:54;24.00;1.00
35531;DHT22;21637;53.352;-6.356;2023-06-24T08:09:20;24.10;1.00
35531;DHT22;21637;53.352;-6.356;2023-06-24T08:11:46;24.20;1.00
35531;DHT22;21637;53.352;-6.356;2023-06-24T08:14:11;24.20;1.00
35531;DHT22;21637;53.352;-6.356;2023-06-24T08:16:37;24.30;1.00
35531;DHT22;21637;53.352;-6.356;2023-06-24T08:19:03;24.20;1.00
35531;DHT22;21637;53.352;-6.356;2023-06-24T08:21:29;24.30;1.00
35531;DHT22;21637;53.352;-6.356;2023-06-24T08:23:55;24.10;1.00
35531;DHT22;21637;53.352;-6.356;2023-06-24T08:26:21;24.00;1.00
35531;DHT22;21637;53.352;-6.356;2023-06-24T08:28:47;23.80;1.00
35531;DHT22;21637;53.352;-6.356;2023-06-24T08:31:14;23.80;1.00
35531;DHT22;21637;53.352;-6.356;2023-06-24T08:33:44;23.80;1.00
35531;DHT22;21637;53.352;-6.356;2023-06-24T08:36:11;23.90;1.00
35531;DHT22;21637;53.352;-6.356;2023-06-24T08:38:36;24.00;1.00
35531;DHT22;21637;53.352;-6.356;2023-06-24T08:41:02;24.00;1.00
35531;DHT22;21637;53.352;-6.356;2023-06-24T08:43:28;24.10;1.00
35531;DHT22;21637;53.352;-6.356;2023-06-24T08:45:54;24.10;1.00
35531;DHT22;21637;53.352;-6.356;2023-06-24T08:48:21;24.00;1.00
35531;DHT22;21637;53.352;-6.356;2023-06-24T08:50:50;23.80;1.00
35531;DHT22;21637;53.352;-6.356;2023-06-24T08:53:18;23.80;1.00
35531;DHT22;21637;53.352;-6.356;2023-06-24T08:55:46;23.70;1.00
35531;DHT22;21637;53.352;-6.356;2023-06-24T08:58:13;23.60;1.00
35531;DHT22;21637;53.352;-6.356;2023-06-24T09:00:39;23.50;1.00
35531;DHT22;21637;53.352;-6.356;2023-06-24T09:03:05;23.70;1.00
35531;DHT22;21637;53.352;-6.356;2023-06-24T09:05:31;23.80;1.00
35531;DHT22;21637;53.352;-6.356;2023-06-24T09:07:57;23.80;1.00
35531;DHT22;21637;53.352;-6.356;2023-06-24T09:10:32;23.90;1.00
35531;DHT22;21637;53.352;-6.356;2023-06-24T09:12:59;24.00;1.00
35531;DHT22;21637;53.352;-6.356;2023-06-24T09:15:25;24.20;1.00
35531;DHT22;21637;53.352;-6.356;2023-06-24T09:17:54;24.30;1.00
35531;DHT22;21637;53.352;-6.356;2023-06-24T09:20:20;24.10;1.00
35531;DHT22;21637;53.352;-6.356;2023-06-24T09:22:48;24.00;1.00
35531;DHT22;21637;53.352;-6.356;2023-06-24T09:25:18;24.00;1.00
35531;DHT22;21637;53.352;-6.356;2023-06-24T09:27:50;23.80;1.00
35531;DHT22;21637;53.352;-6.356;2023-06-24T09:30:24;23.70;1.00
35531;DHT22;21637;53.352;-6.356;2023-06-24T09:32:51;23.50;1.00
35531;DHT22;21637;53.352;-6.356;2023-06-24T09:35:25;23.40;1.00
35531;DHT22;21637;53.352;-6.356;2023-06-24T09:37:52;23.30;1.00
35531;DHT22;21637;53.352;-6.356;2023-06-24T09:40:19;23.30;1.00
35531;DHT22;21637;53.352;-6.356;2023-06-24T09:42:56;23.40;1.00
35531;DHT22;21637;53.352;-6.356;2023-06-24T09:45:26;23.30;1.00
35531;DHT22;21637;53.352;-6.356;2023-06-24T09:47:56;23.30;1.00
35531;DHT22;21637;53.352;-6.356;2023-06-24T09:50:25;23.40;1.00
35531;DHT22;21637;53.352;-6.356;2023-06-24T09:52:52;23.50;1.00
35531;DHT22;21637;53.352;-6.356;2023-06-24T09:55:18;23.80;1.00
35531;DHT22;21637;53.352;-6.356;2023-06-24T09:57:45;24.00;1.00
35531;DHT22;21637;53.352;-6.356;2023-06-24T10:00:13;24.20;1.00
35531;DHT22;21637;53.352;-6.356;2023-06-24T10:02:40;24.30;1.00
35531;DHT22;21637;53.352;-6.356;2023-06-24T10:05:07;24.30;99.90
35531;DHT22;21637;53.352;-6.356;2023-06-24T10:07:34;24.40;1.00
35531;DHT22;21637;53.352;-6.356;2023-06-24T10:10:04;24.60;1.00
35531;DHT22;21637;53.352;-6.356;2023-06-24T10:12:30;24.70;1.00
35531;DHT22;21637;53.352;-6.356;2023-06-24T10:14:58;24.70;99.90
35531;DHT22;21637;53.352;-6.356;2023-06-24T10:17:24;24.60;99.90
35531;DHT22;21637;53.352;-6.356;2023-06-24T10:19:52;24.50;1.00
35531;DHT22;21637;53.352;-6.356;2023-06-24T10:22:24;24.60;1.00
35531;DHT22;21637;53.352;-6.356;2023-06-24T10:24:52;24.80;1.00
35531;DHT22;21637;53.352;-6.356;2023-06-24T10:27:20;24.80;1.00
35531;DHT22;21637;53.352;-6.356;2023-06-24T10:29:53;24.90;1.00
35531;DHT22;21637;53.352;-6.356;2023-06-24T10:32:23;24.70;66.90
35531;DHT22;21637;53.352;-6.356;2023-06-24T10:34:57;24.70;99.90
35531;DHT22;21637;53.352;-6.356;2023-06-24T10:37:25;24.70;1.00
35531;DHT22;21637;53.352;-6.356;2023-06-24T10:39:58;24.70;99.90
35531;DHT22;21637;53.352;-6.356;2023-06-24T10:42:27;24.80;99.90
35531;DHT22;21637;53.352;-6.356;2023-06-24T10:44:55;24.80;99.90
35531;DHT22;21637;53.352;-6.356;2023-06-24T10:47:22;25.00;99.90
35531;DHT22;21637;53.352;-6.356;2023-06-24T10:49:48;25.10;99.90
35531;DHT22;21637;53.352;-6.356;2023-06-24T10:52:14;25.20;1.00
35531;DHT22;21637;53.352;-6.356;2023-06-24T10:54:43;25.30;99.90
35531;DHT22;21637;53.352;-6.356;2023-06-24T10:57:11;25.30;99.90
35531;DHT22;21637;53.352;-6.356;2023-06-24T10:59:42;25.30;1.00
35531;DHT22;21637;53.352;-6.356;2023-06-24T11:02:14;25.20;99.90
35531;DHT22;21637;53.352;-6.356;2023-06-24T11:04:50;25.10;1.00
35531;DHT22;21637;53.352;-6.356;2023-06-24T11:07:21;25.10;99.90
35531;DHT22;21637;53.352;-6.356;2023-06-24T11:09:51;25.00;1.00
35531;DHT22;21637;53.352;-6.356;2023-06-24T11:12:18;25.10;99.90
35531;DHT22;21637;53.352;-6.356;2023-06-24T11:14:44;25.00;99.90
35531;DHT22;21637;53.352;-6.356;2023-06-24T11:17:09;25.00;99.90
35531;DHT22;21637;53.352;-6.356;2023-06-24T11:19:35;25.10;99.90
35531;DHT22;21637;53.352;-6.356;2023-06-24T11:22:05;25.20;99.90
35531;DHT22;21637;53.352;-6.356;2023-06-24T11:24:32;25.10;1.00
35531;DHT22;21637;53.352;-6.356;2023-06-24T11:26:58;25.10;1.00
35531;DHT22;21637;53.352;-6.356;2023-06-24T11:29:24;25.20;99.90
35531;DHT22;21637;53.352;-6.356;2023-06-24T11:31:50;25.20;43.60
35531;DHT22;21637;53.352;-6.356;2023-06-24T11:34:16;25.30;1.00
35531;DHT22;21637;53.352;-6.356;2023-06-24T11:36:44;25.40;1.00
35531;DHT22;21637;53.352;-6.356;2023-06-24T11:39:21;25.30;1.00
35531;DHT22;21637;53.352;-6.356;2023-06-24T11:41:47;25.20;1.00
35531;DHT22;21637;53.352;-6.356;2023-06-24T11:44:13;25.30;1.00
35531;DHT22;21637;53.352;-6.356;2023-06-24T11:46:40;25.40;99.90
35531;DHT22;21637;53.352;-6.356;2023-06-24T11:49:09;25.30;51.30
35531;DHT22;21637;53.352;-6.356;2023-06-24T11:51:35;25.30;99.90
35531;DHT22;21637;53.352;-6.356;2023-06-24T11:54:03;25.30;1.00
35531;DHT22;21637;53.352;-6.356;2023-06-24T11:59:07;25.20;99.90
35531;DHT22;21637;53.352;-6.356;2023-06-24T12:01:33;25.20;1.00
35531;DHT22;21637;53.352;-6.356;2023-06-24T12:04:14;25.20;1.00
35531;DHT22;21637;53.352;-6.356;2023-06-24T12:06:43;25.30;62.10
35531;DHT22;21637;53.352;-6.356;2023-06-24T12:09:10;25.40;99.90
35531;DHT22;21637;53.352;-6.356;2023-06-24T12:11:36;25.50;1.00
35531;DHT22;21637;53.352;-6.356;2023-06-24T12:14:02;25.40;1.00
35531;DHT22;21637;53.352;-6.356;2023-06-24T12:16:28;25.60;1.00
35531;DHT22;21637;53.352;-6.356;2023-06-24T12:18:54;25.60;1.00
35531;DHT22;21637;53.352;-6.356;2023-06-24T12:21:20;25.60;1.00
35531;DHT22;21637;53.352;-6.356;2023-06-24T12:23:46;25.60;99.90
35531;DHT22;21637;53.352;-6.356;2023-06-24T12:26:12;25.70;1.00
35531;DHT22;21637;53.352;-6.356;2023-06-24T12:28:38;25.80;1.00
35531;DHT22;21637;53.352;-6.356;2023-06-24T12:31:04;25.80;99.90
35531;DHT22;21637;53.352;-6.356;2023-06-24T12:33:32;25.90;1.00
35531;DHT22;21637;53.352;-6.356;2023-06-24T12:35:59;26.00;1.00
35531;DHT22;21637;53.352;-6.356;2023-06-24T12:38:25;26.00;99.90
35531;DHT22;21637;53.352;-6.356;2023-06-24T12:40:50;25.90;99.90
35531;DHT22;21637;53.352;-6.356;2023-06-24T12:43:16;26.00;99.90
35531;DHT22;21637;53.352;-6.356;2023-06-24T12:45:42;25.80;99.90
35531;DHT22;21637;53.352;-6.356;2023-06-24T12:48:12;25.90;1.00
35531;DHT22;21637;53.352;-6.356;2023-06-24T12:50:38;25.80;22.90
35531;DHT22;21637;53.352;-6.356;2023-06-24T12:53:04;25.90;99.90
35531;DHT22;21637;53.352;-6.356;2023-06-24T12:55:30;26.00;99.90
35531;DHT22;21637;53.352;-6.356;2023-06-24T12:57:56;26.20;1.00
35531;DHT22;21637;53.352;-6.356;2023-06-24T13:00:23;26.30;1.00
35531;DHT22;21637;53.352;-6.356;2023-06-24T13:02:50;26.30;1.00
35531;DHT22;21637;53.352;-6.356;2023-06-24T13:05:16;26.40;1.00
35531;DHT22;21637;53.352;-6.356;2023-06-24T13:07:42;26.40;99.90
35531;DHT22;21637;53.352;-6.356;2023-06-24T13:10:09;26.50;1.00
35531;DHT22;21637;53.352;-6.356;2023-06-24T13:12:35;26.60;1.00
35531;DHT22;21637;53.352;-6.356;2023-06-24T13:15:02;26.70;99.90
35531;DHT22;21637;53.352;-6.356;2023-06-24T13:17:30;26.80;99.90
35531;DHT22;21637;53.352;-6.356;2023-06-24T13:19:55;26.80;99.90
35531;DHT22;21637;53.352;-6.356;2023-06-24T13:22:22;26.80;99.90
35531;DHT22;21637;53.352;-6.356;2023-06-24T13:24:47;26.70;99.90
35531;DHT22;21637;53.352;-6.356;2023-06-24T13:27:13;26.70;99.90
35531;DHT22;21637;53.352;-6.356;2023-06-24T13:29:39;26.70;1.00
35531;DHT22;21637;53.352;-6.356;2023-06-24T13:32:05;26.60;99.90
35531;DHT22;21637;53.352;-6.356;2023-06-24T13:34:31;26.50;1.00
35531;DHT22;21637;53.352;-6.356;2023-06-24T13:36:56;26.60;1.00
35531;DHT22;21637;53.352;-6.356;2023-06-24T13:39:22;26.70;99.90
35531;DHT22;21637;53.352;-6.356;2023-06-24T13:41:49;26.80;99.90
35531;DHT22;21637;53.352;-6.356;2023-06-24T13:44:15;26.70;1.00
35531;DHT22;21637;53.352;-6.356;2023-06-24T13:46:41;26.80;99.90
35531;DHT22;21637;53.352;-6.356;2023-06-24T13:49:07;26.70;1.00
35531;DHT22;21637;53.352;-6.356;2023-06-24T13:51:33;26.80;31.20
35531;DHT22;21637;53.352;-6.356;2023-06-24T13:54:00;26.70;1.00
35531;DHT22;21637;53.352;-6.356;2023-06-24T13:56:27;26.60;1.00
35531;DHT22;21637;53.352;-6.356;2023-06-24T13:58:53;26.70;1.00
35531;DHT22;21637;53.352;-6.356;2023-06-24T14:01:20;26.70;1.00
35531;DHT22;21637;53.352;-6.356;2023-06-24T14:03:47;26.60;1.00
35531;DHT22;21637;53.352;-6.356;2023-06-24T14:06:18;26.60;1.00
35531;DHT22;21637;53.352;-6.356;2023-06-24T14:08:45;26.30;1.00
35531;DHT22;21637;53.352;-6.356;2023-06-24T14:11:11;26.10;99.90
35531;DHT22;21637;53.352;-6.356;2023-06-24T14:13:37;26.10;99.90
35531;DHT22;21637;53.352;-6.356;2023-06-24T14:16:04;25.90;99.90
35531;DHT22;21637;53.352;-6.356;2023-06-24T14:18:30;26.00;1.00
35531;DHT22;21637;53.352;-6.356;2023-06-24T14:20:59;25.80;1.00
35531;DHT22;21637;53.352;-6.356;2023-06-24T14:23:24;25.70;99.90
35531;DHT22;21637;53.352;-6.356;2023-06-24T14:25:51;25.90;1.00
35531;DHT22;21637;53.352;-6.356;2023-06-24T14:28:17;25.90;99.90
35531;DHT22;21637;53.352;-6.356;2023-06-24T14:30:43;25.90;1.00
35531;DHT22;21637;53.352;-6.356;2023-06-24T14:33:11;25.90;99.90
35531;DHT22;21637;53.352;-6.356;2023-06-24T14:35:37;26.00;99.90
35531;DHT22;21637;53.352;-6.356;2023-06-24T14:38:03;26.10;99.90
35531;DHT22;21637;53.352;-6.356;2023-06-24T14:40:29;26.10;1.00
35531;DHT22;21637;53.352;-6.356;2023-06-24T14:42:55;26.00;1.00
35531;DHT22;21637;53.352;-6.356;2023-06-24T14:45:20;26.00;1.00
35531;DHT22;21637;53.352;-6.356;2023-06-24T14:47:46;26.30;1.00
35531;DHT22;21637;53.352;-6.356;2023-06-24T14:50:12;26.30;1.00
35531;DHT22;21637;53.352;-6.356;2023-06-24T14:52:37;26.20;99.90
35531;DHT22;21637;53.352;-6.356;2023-06-24T14:55:03;25.90;1.00
35531;DHT22;21637;53.352;-6.356;2023-06-24T14:57:29;25.80;1.00
35531;DHT22;21637;53.352;-6.356;2023-06-24T14:59:55;25.80;1.00
35531;DHT22;21637;53.352;-6.356;2023-06-24T15:02:21;25.70;99.90
35531;DHT22;21637;53.352;-6.356;2023-06-24T15:04:46;25.60;99.90
35531;DHT22;21637;53.352;-6.356;2023-06-24T15:07:12;25.40;99.90
35531;DHT22;21637;53.352;-6.356;2023-06-24T15:09:38;25.40;99.90
35531;DHT22;21637;53.352;-6.356;2023-06-24T15:12:04;25.20;99.90
35531;DHT22;21637;53.352;-6.356;2023-06-24T15:14:29;25.20;99.90
35531;DHT22;21637;53.352;-6.356;2023-06-24T15:16:55;25.00;1.00
35531;DHT22;21637;53.352;-6.356;2023-06-24T15:19:24;25.00;99.90
35531;DHT22;21637;53.352;-6.356;2023-06-24T15:21:49;24.80;1.00
35531;DHT22;21637;53.352;-6.356;2023-06-24T15:24:15;24.70;1.00
35531;DHT22;21637;53.352;-6.356;2023-06-24T15:26:41;24.80;1.00
35531;DHT22;21637;53.352;-6.356;2023-06-24T15:29:06;24.80;1.00
35531;DHT22;21637;53.352;-6.356;2023-06-24T15:31:32;24.70;1.00